Аэропорт: Гродно. Гродно

ICAO: UMMG

METAR:
Информация по данной станции не доступна
METAR:
2021-04-21 14:08:00
TAF UMMG 211408Z 2115/2124 28005G10MPS 9999 BKN020 TEMPO 2115/2119 27007G12MPS -SHRA SCT016CB TEMPO 2119/2124 24003MPS 3000 BR